Time;durP1;ratioP1;P1;durP2;ratioP2;P2;SDS_P1;SDS_P2;PMS_P1;PMS_P2;Temp;Humidity;BMP_temperature;BMP_pressure;BME280_temperature;BME280_humidity;BME280_pressure;Samples;Min_cycle;Max_cycle;Signal;HPM_P1;HPM_P2
2023/05/03 00:01:25;;;;;;;27.73;13.93;;;;;;;;;;5047149;28;20067;-72
2023/05/03 00:03:52;;;;;;;15.63;3.58;;;;;;;;;;5051068;28;20600;-71
2023/05/03 00:06:18;;;;;;;12.63;3.30;;;;;;;;;;5051382;28;20033;-72
2023/05/03 00:08:44;;;;;;;15.10;3.75;;;;;;;;;;5051459;28;20032;-71
2023/05/03 00:11:10;;;;;;;15.88;3.30;;;;;;;;;;5051842;28;20429;-71
2023/05/03 00:13:36;;;;;;;12.60;3.60;;;;;;;;;;5051210;28;20439;-72
2023/05/03 00:16:02;;;;;;;11.82;3.00;;;;;;;;;;5051538;28;20021;-71
2023/05/03 00:18:29;;;;;;;12.63;3.15;;;;;;;;;;5053127;28;20025;-70
2023/05/03 00:20:55;;;;;;;10.73;3.47;;;;;;;;;;5055655;28;20025;-71
2023/05/03 00:23:22;;;;;;;14.88;3.60;;;;;;;;;;5055254;28;20048;-71
2023/05/03 00:25:55;;;;;;;13.98;3.53;;;;;;;;;;5055373;28;20053;-71
2023/05/03 00:28:21;;;;;;;10.20;3.15;;;;;;;;;;5055284;28;20044;-71
2023/05/03 00:30:47;;;;;;;12.93;3.10;;;;;;;;;;5055579;28;20029;-71
2023/05/03 00:33:13;;;;;;;12.73;3.00;;;;;;;;;;5055303;28;20552;-72
2023/05/03 00:35:39;;;;;;;12.93;3.90;;;;;;;;;;5055421;28;20028;-72
2023/05/03 00:38:04;;;;;;;10.55;3.10;;;;;;;;;;5055313;28;20064;-71
2023/05/03 00:40:30;;;;;;;15.23;3.13;;;;;;;;;;5055616;28;20383;-71
2023/05/03 00:42:56;;;;;;;15.65;3.28;;;;;;;;;;5055499;28;20039;-72
2023/05/03 00:45:22;;;;;;;16.35;2.72;;;;;;;;;;5056163;28;20017;-72
2023/05/03 00:47:48;;;;;;;13.68;3.40;;;;;;;;;;5055445;28;20026;-72
2023/05/03 00:50:14;;;;;;;11.93;3.03;;;;;;;;;;5054993;28;20021;-71
2023/05/03 00:52:41;;;;;;;16.77;3.08;;;;;;;;;;5054824;28;20102;-73
2023/05/03 00:55:08;;;;;;;11.57;3.30;;;;;;;;;;5055245;28;20116;-71
2023/05/03 00:57:33;;;;;;;8.52;3.22;;;;;;;;;;5054802;28;20386;-70
2023/05/03 00:59:59;;;;;;;14.35;3.50;;;;;;;;;;5054874;28;20096;-72
2023/05/03 01:02:26;;;;;;;8.75;3.20;;;;;;;;;;5055036;28;20107;-72
2023/05/03 01:04:53;;;;;;;13.13;3.60;;;;;;;;;;5054697;28;20061;-72
2023/05/03 01:07:40;;;;;;;12.15;3.63;;;;;;;;;;5054547;28;20087;-70
2023/05/03 01:10:06;;;;;;;11.77;3.30;;;;;;;;;;5054626;28;20028;-71
2023/05/03 01:12:38;;;;;;;12.65;3.67;;;;;;;;;;5054333;28;20017;-70
2023/05/03 01:15:13;;;;;;;16.73;3.42;;;;;;;;;;5054547;28;20505;-72
2023/05/03 01:17:41;;;;;;;11.90;2.95;;;;;;;;;;5055023;28;20417;-71
2023/05/03 01:20:10;;;;;;;14.13;3.33;;;;;;;;;;5054477;28;20028;-71
2023/05/03 01:22:55;;;;;;;12.45;3.47;;;;;;;;;;5052993;28;20024;-72
2023/05/03 01:25:21;;;;;;;16.80;3.63;;;;;;;;;;5054478;28;20033;-70
2023/05/03 01:27:47;;;;;;;14.35;3.25;;;;;;;;;;5054260;28;20518;-72
2023/05/03 01:30:13;;;;;;;16.02;3.95;;;;;;;;;;5053763;28;20052;-72
2023/05/03 01:32:48;;;;;;;13.48;3.33;;;;;;;;;;5053968;28;20029;-73
2023/05/03 01:35:19;;;;;;;8.68;3.35;;;;;;;;;;5053362;28;20033;-71
2023/05/03 01:37:45;;;;;;;7.32;2.97;;;;;;;;;;5054226;28;20394;-73
2023/05/03 01:40:15;;;;;;;11.82;3.85;;;;;;;;;;5053894;28;20414;-71
2023/05/03 01:42:41;;;;;;;15.07;3.42;;;;;;;;;;5053892;28;20029;-72
2023/05/03 01:45:08;;;;;;;12.55;3.10;;;;;;;;;;5053928;28;20079;-72
2023/05/03 01:47:34;;;;;;;11.27;2.95;;;;;;;;;;5053974;28;20029;-72
2023/05/03 01:50:00;;;;;;;11.30;3.13;;;;;;;;;;5054079;28;20426;-73
2023/05/03 01:52:26;;;;;;;9.13;3.28;;;;;;;;;;5053821;28;20109;-71
2023/05/03 01:54:52;;;;;;;13.38;3.30;;;;;;;;;;5054104;28;20025;-71
2023/05/03 01:57:18;;;;;;;13.20;3.22;;;;;;;;;;5054185;28;20020;-72
2023/05/03 01:59:44;;;;;;;12.25;3.10;;;;;;;;;;5052903;28;20463;-71
2023/05/03 02:02:10;;;;;;;10.25;3.60;;;;;;;;;;5052900;28;20024;-70
2023/05/03 02:04:36;;;;;;;11.75;3.22;;;;;;;;;;5052654;28;20021;-72
2023/05/03 02:07:03;;;;;;;15.70;3.60;;;;;;;;;;5052736;28;20025;-70
2023/05/03 02:09:29;;;;;;;13.35;3.63;;;;;;;;;;5052413;28;20025;-71
2023/05/03 02:11:55;;;;;;;12.45;3.38;;;;;;;;;;5052748;28;20045;-71
2023/05/03 02:14:20;;;;;;;12.50;3.10;;;;;;;;;;5052493;28;20060;-71
2023/05/03 02:16:47;;;;;;;15.07;3.58;;;;;;;;;;5052402;28;20037;-71
2023/05/03 02:19:13;;;;;;;11.73;3.30;;;;;;;;;;5050207;28;20437;-71
2023/05/03 02:21:39;;;;;;;9.82;2.95;;;;;;;;;;5065130;28;20044;-71
2023/05/03 02:24:05;;;;;;;9.65;3.15;;;;;;;;;;5068758;28;20056;-71
2023/05/03 02:26:31;;;;;;;11.90;2.90;;;;;;;;;;5052560;28;20546;-71
2023/05/03 02:28:57;;;;;;;10.18;3.05;;;;;;;;;;5052144;28;20063;-70
2023/05/03 02:31:23;;;;;;;10.95;3.30;;;;;;;;;;5052167;28;20498;-72
2023/05/03 02:33:49;;;;;;;15.73;4.97;;;;;;;;;;5051786;28;20040;-71
2023/05/03 02:36:15;;;;;;;18.30;3.75;;;;;;;;;;5052210;28;20368;-72
2023/05/03 02:38:41;;;;;;;13.27;3.40;;;;;;;;;;5052344;28;20031;-72
2023/05/03 02:41:07;;;;;;;11.93;3.40;;;;;;;;;;5052129;28;20457;-71
2023/05/03 02:43:33;;;;;;;12.27;3.38;;;;;;;;;;5051902;28;20025;-72
2023/05/03 02:45:59;;;;;;;11.88;3.20;;;;;;;;;;5052018;28;20052;-72
2023/05/03 02:48:25;;;;;;;13.45;4.28;;;;;;;;;;5052307;28;20021;-71
2023/05/03 02:50:53;;;;;;;16.05;4.15;;;;;;;;;;5051968;28;20025;-71
2023/05/03 02:53:19;;;;;;;13.63;4.22;;;;;;;;;;5051782;28;20029;-71
2023/05/03 02:55:45;;;;;;;13.18;3.30;;;;;;;;;;5051694;28;20067;-71
2023/05/03 02:58:11;;;;;;;11.32;3.65;;;;;;;;;;5051549;28;20028;-70
2023/05/03 03:00:37;;;;;;;19.10;3.90;;;;;;;;;;5051741;28;20065;-71
2023/05/03 03:03:03;;;;;;;13.90;3.05;;;;;;;;;;5051554;28;20435;-71
2023/05/03 03:05:30;;;;;;;14.00;3.58;;;;;;;;;;5051054;28;20029;-71
2023/05/03 03:07:56;;;;;;;17.85;5.50;;;;;;;;;;5052249;28;20033;-70
2023/05/03 03:10:22;;;;;;;13.13;4.68;;;;;;;;;;5053905;28;20052;-71
2023/05/03 03:12:48;;;;;;;12.43;3.80;;;;;;;;;;5051335;28;20504;-70
2023/05/03 03:15:14;;;;;;;15.70;3.80;;;;;;;;;;5051884;28;20033;-72
2023/05/03 03:17:40;;;;;;;16.08;4.22;;;;;;;;;;5051758;28;20024;-74
2023/05/03 03:20:07;;;;;;;10.57;3.97;;;;;;;;;;5051410;28;20037;-71
2023/05/03 03:22:34;;;;;;;9.43;3.90;;;;;;;;;;5050966;28;20450;-72
2023/05/03 03:25:00;;;;;;;15.10;4.53;;;;;;;;;;5051839;28;20025;-70
2023/05/03 03:27:26;;;;;;;10.10;3.72;;;;;;;;;;5051224;28;20115;-71
2023/05/03 03:29:52;;;;;;;14.18;4.35;;;;;;;;;;5051489;28;20078;-71
2023/05/03 03:32:18;;;;;;;18.65;4.40;;;;;;;;;;5051235;28;20032;-69
2023/05/03 03:34:44;;;;;;;12.07;4.50;;;;;;;;;;5051083;28;20093;-70
2023/05/03 03:37:10;;;;;;;14.95;4.55;;;;;;;;;;5051082;28;20066;-70
2023/05/03 03:39:37;;;;;;;12.60;3.90;;;;;;;;;;5050946;28;20025;-71
2023/05/03 03:42:03;;;;;;;12.88;4.45;;;;;;;;;;5051616;28;20440;-71
2023/05/03 03:44:29;;;;;;;12.45;4.25;;;;;;;;;;5052135;28;20032;-71
2023/05/03 03:46:55;;;;;;;19.63;4.43;;;;;;;;;;5051950;28;20017;-71
2023/05/03 03:49:21;;;;;;;13.55;4.72;;;;;;;;;;5051790;28;20079;-72
2023/05/03 03:51:47;;;;;;;17.67;5.18;;;;;;;;;;5051573;28;20029;-71
2023/05/03 03:54:13;;;;;;;16.58;5.15;;;;;;;;;;5051414;28;20371;-71
2023/05/03 03:56:39;;;;;;;16.73;4.70;;;;;;;;;;5051860;28;20025;-71
2023/05/03 03:59:06;;;;;;;12.85;4.80;;;;;;;;;;5051412;28;20544;-75
2023/05/03 04:01:33;;;;;;;11.48;4.72;;;;;;;;;;5051100;28;20025;-73
2023/05/03 04:03:59;;;;;;;12.05;4.15;;;;;;;;;;5050433;28;20055;-71
2023/05/03 04:06:26;;;;;;;12.98;5.07;;;;;;;;;;5050899;28;20475;-71
2023/05/03 04:08:52;;;;;;;15.25;5.07;;;;;;;;;;5050134;28;20032;-71
2023/05/03 04:11:18;;;;;;;16.15;4.95;;;;;;;;;;5050747;28;20490;-71
2023/05/03 04:13:44;;;;;;;15.65;5.18;;;;;;;;;;5050512;28;20047;-72
2023/05/03 04:16:10;;;;;;;19.98;5.47;;;;;;;;;;5050681;28;20021;-71
2023/05/03 04:18:36;;;;;;;13.27;4.70;;;;;;;;;;5050329;28;20044;-71
2023/05/03 04:21:02;;;;;;;14.45;4.72;;;;;;;;;;5050619;28;20025;-71
2023/05/03 04:23:28;;;;;;;13.00;5.07;;;;;;;;;;5050309;28;20483;-72
2023/05/03 04:25:56;;;;;;;16.58;4.50;;;;;;;;;;5049192;28;20036;-71
2023/05/03 04:28:22;;;;;;;13.38;4.78;;;;;;;;;;5050430;28;20067;-72
2023/05/03 04:30:48;;;;;;;21.33;5.30;;;;;;;;;;5050240;28;20025;-71
2023/05/03 04:33:14;;;;;;;11.68;4.70;;;;;;;;;;5050087;28;20352;-71
2023/05/03 04:35:40;;;;;;;10.43;5.07;;;;;;;;;;5049834;28;20386;-75
2023/05/03 04:38:07;;;;;;;14.38;5.40;;;;;;;;;;5050153;28;20025;-73
2023/05/03 04:40:33;;;;;;;13.40;5.03;;;;;;;;;;5052550;28;20437;-72
2023/05/03 04:42:59;;;;;;;15.23;5.65;;;;;;;;;;5049934;28;20041;-73
2023/05/03 04:45:26;;;;;;;11.75;5.60;;;;;;;;;;5049878;28;20033;-74
2023/05/03 04:47:52;;;;;;;9.68;4.55;;;;;;;;;;5054488;28;20033;-73
2023/05/03 04:50:18;;;;;;;14.98;5.05;;;;;;;;;;5049629;28;20463;-73
2023/05/03 04:52:44;;;;;;;13.23;5.47;;;;;;;;;;5049819;28;20479;-73
2023/05/03 04:55:10;;;;;;;16.15;5.45;;;;;;;;;;5050016;28;20025;-71
2023/05/03 04:57:36;;;;;;;12.77;5.07;;;;;;;;;;5051074;28;20140;-72
2023/05/03 05:00:03;;;;;;;16.35;5.10;;;;;;;;;;5051116;28;20025;-71
2023/05/03 05:02:29;;;;;;;10.55;5.30;;;;;;;;;;5050938;28;20021;-71
2023/05/03 05:04:55;;;;;;;11.23;4.90;;;;;;;;;;5051593;28;20028;-71
2023/05/03 05:07:21;;;;;;;16.02;4.82;;;;;;;;;;5054441;28;20327;-71
2023/05/03 05:09:47;;;;;;;14.75;5.03;;;;;;;;;;5054599;28;20201;-72
2023/05/03 05:12:12;;;;;;;11.90;5.38;;;;;;;;;;5054041;28;20391;-73
2023/05/03 05:14:39;;;;;;;14.00;5.30;;;;;;;;;;5054592;28;20021;-71
2023/05/03 05:17:05;;;;;;;14.30;4.60;;;;;;;;;;5054655;28;20602;-72
2023/05/03 05:19:31;;;;;;;17.25;5.35;;;;;;;;;;5054687;28;20083;-72
2023/05/03 05:21:57;;;;;;;16.10;5.07;;;;;;;;;;5054296;28;20369;-71
2023/05/03 05:24:23;;;;;;;13.27;5.10;;;;;;;;;;5054827;28;20029;-71
2023/05/03 05:26:49;;;;;;;12.10;5.07;;;;;;;;;;5054724;28;20022;-72
2023/05/03 05:29:15;;;;;;;11.48;4.75;;;;;;;;;;5050084;28;20031;-75
2023/05/03 05:31:41;;;;;;;11.35;5.03;;;;;;;;;;5061402;28;20448;-72
2023/05/03 05:34:07;;;;;;;18.08;5.82;;;;;;;;;;5053748;28;20033;-72
2023/05/03 05:36:33;;;;;;;17.55;4.82;;;;;;;;;;5054361;28;20107;-71
2023/05/03 05:38:59;;;;;;;13.50;5.18;;;;;;;;;;5059474;28;20036;-72
2023/05/03 05:41:25;;;;;;;15.45;4.57;;;;;;;;;;5054093;28;20498;-74
2023/05/03 05:43:52;;;;;;;15.38;4.72;;;;;;;;;;5053740;28;20071;-72
2023/05/03 05:46:20;;;;;;;14.25;4.70;;;;;;;;;;5054219;28;20056;-72
2023/05/03 05:48:46;;;;;;;9.90;4.13;;;;;;;;;;5053819;28;20039;-72
2023/05/03 05:51:12;;;;;;;14.25;4.40;;;;;;;;;;5053888;28;20479;-72
2023/05/03 05:53:38;;;;;;;18.48;5.07;;;;;;;;;;5053745;28;20036;-71
2023/05/03 05:56:05;;;;;;;14.65;4.30;;;;;;;;;;5055737;28;20024;-71
2023/05/03 05:58:31;;;;;;;15.43;4.28;;;;;;;;;;5053941;28;20017;-71
2023/05/03 06:01:00;;;;;;;14.80;4.32;;;;;;;;;;5054553;28;20399;-72
2023/05/03 06:03:26;;;;;;;14.35;4.38;;;;;;;;;;5053545;28;20040;-71
2023/05/03 06:05:52;;;;;;;14.38;4.22;;;;;;;;;;5053790;28;20031;-72
2023/05/03 06:08:18;;;;;;;18.15;4.50;;;;;;;;;;5053325;28;20029;-72
2023/05/03 06:10:44;;;;;;;12.40;4.00;;;;;;;;;;5054090;28;20044;-74
2023/05/03 06:13:11;;;;;;;19.15;5.32;;;;;;;;;;5054324;28;20457;-70
2023/05/03 06:15:37;;;;;;;16.70;4.25;;;;;;;;;;5054489;28;20024;-74
2023/05/03 06:18:03;;;;;;;14.48;4.40;;;;;;;;;;5053909;28;20025;-73
2023/05/03 06:20:29;;;;;;;10.27;3.08;;;;;;;;;;5053738;28;20491;-72
2023/05/03 06:22:55;;;;;;;9.55;2.85;;;;;;;;;;5053320;28;20032;-73
2023/05/03 06:25:21;;;;;;;11.27;2.97;;;;;;;;;;5053686;28;20429;-73
2023/05/03 06:27:47;;;;;;;12.43;2.95;;;;;;;;;;5060173;28;20070;-72
2023/05/03 06:30:13;;;;;;;11.43;2.97;;;;;;;;;;5073287;28;20111;-71
2023/05/03 06:32:40;;;;;;;19.13;3.40;;;;;;;;;;5054518;28;20099;-70
2023/05/03 06:35:08;;;;;;;11.38;3.17;;;;;;;;;;5053324;28;20360;-70
2023/05/03 06:37:34;;;;;;;19.02;3.00;;;;;;;;;;5053387;28;20056;-71
2023/05/03 06:40:00;;;;;;;10.70;2.28;;;;;;;;;;5052834;28;20418;-70
2023/05/03 06:42:26;;;;;;;17.65;3.50;;;;;;;;;;5052845;28;20028;-71
2023/05/03 06:44:52;;;;;;;11.20;2.90;;;;;;;;;;5052867;28;20087;-71
2023/05/03 06:47:20;;;;;;;13.38;2.15;;;;;;;;;;5053261;28;20029;-70
2023/05/03 06:49:46;;;;;;;8.30;2.25;;;;;;;;;;5052739;28;20104;-72
2023/05/03 06:52:12;;;;;;;14.63;2.75;;;;;;;;;;5052478;28;20483;-71
2023/05/03 06:54:39;;;;;;;12.05;2.28;;;;;;;;;;5052043;28;20483;-71
2023/05/03 06:57:06;;;;;;;11.50;2.67;;;;;;;;;;5051696;28;20052;-70
2023/05/03 06:59:32;;;;;;;11.05;2.10;;;;;;;;;;5051729;28;20048;-69
2023/05/03 07:01:58;;;;;;;14.45;2.55;;;;;;;;;;5051514;28;20594;-71
2023/05/03 07:04:24;;;;;;;14.55;3.90;;;;;;;;;;5051524;28;20039;-72
2023/05/03 07:06:50;;;;;;;8.52;2.92;;;;;;;;;;5051570;28;20029;-71
2023/05/03 07:09:17;;;;;;;15.27;5.05;;;;;;;;;;5050815;28;20039;-72
2023/05/03 07:11:48;;;;;;;10.77;3.88;;;;;;;;;;5050766;28;20104;-74
2023/05/03 07:14:14;;;;;;;10.77;3.95;;;;;;;;;;5051318;28;20087;-73
2023/05/03 07:16:40;;;;;;;8.55;1.85;;;;;;;;;;5051487;28;20036;-72
2023/05/03 07:19:06;;;;;;;7.05;1.77;;;;;;;;;;5051364;28;20029;-74
2023/05/03 07:21:32;;;;;;;7.13;2.17;;;;;;;;;;5051225;28;20029;-73
2023/05/03 07:23:59;;;;;;;7.30;2.22;;;;;;;;;;5050974;28;20048;-73
2023/05/03 07:26:25;;;;;;;8.68;2.85;;;;;;;;;;5053451;28;20371;-73
2023/05/03 07:28:52;;;;;;;7.50;2.60;;;;;;;;;;5050284;28;20028;-72
2023/05/03 07:31:18;;;;;;;8.90;1.80;;;;;;;;;;5053496;28;20058;-73
2023/05/03 07:33:44;;;;;;;10.75;2.47;;;;;;;;;;5051109;28;20064;-73
2023/05/03 07:36:11;;;;;;;5.25;1.70;;;;;;;;;;5051073;28;20060;-72
2023/05/03 07:38:37;;;;;;;8.93;1.90;;;;;;;;;;5050947;28;20498;-73
2023/05/03 07:41:03;;;;;;;8.55;2.00;;;;;;;;;;5051265;28;20028;-73
2023/05/03 07:43:30;;;;;;;4.45;1.73;;;;;;;;;;5050772;28;20032;-72
2023/05/03 07:45:56;;;;;;;9.98;2.30;;;;;;;;;;5052647;28;20072;-72
2023/05/03 07:48:22;;;;;;;6.53;1.80;;;;;;;;;;5057229;28;20060;-73
2023/05/03 07:50:48;;;;;;;12.10;3.08;;;;;;;;;;5055824;28;20021;-73
2023/05/03 07:53:14;;;;;;;5.35;1.35;;;;;;;;;;5056903;28;20025;-74
2023/05/03 07:55:40;;;;;;;7.03;1.50;;;;;;;;;;5050991;28;20071;-70
2023/05/03 07:58:07;;;;;;;4.88;1.50;;;;;;;;;;5052291;28;20021;-71
2023/05/03 08:00:33;;;;;;;5.07;1.77;;;;;;;;;;5052760;28;20021;-72
2023/05/03 08:03:02;;;;;;;4.32;2.00;;;;;;;;;;5051604;28;20067;-71
2023/05/03 08:05:28;;;;;;;4.93;1.52;;;;;;;;;;5051590;28;20036;-70
2023/05/03 08:07:54;;;;;;;9.65;1.92;;;;;;;;;;5051547;28;20033;-70
2023/05/03 08:10:20;;;;;;;5.07;1.70;;;;;;;;;;5051738;28;20029;-71
2023/05/03 08:12:47;;;;;;;5.60;1.85;;;;;;;;;;5052120;28;20483;-71
2023/05/03 08:15:13;;;;;;;8.95;2.40;;;;;;;;;;5051671;28;20391;-69
2023/05/03 08:17:43;;;;;;;8.70;1.70;;;;;;;;;;5050168;28;20490;-71
2023/05/03 08:20:10;;;;;;;5.53;1.48;;;;;;;;;;5069110;28;20040;-71
2023/05/03 08:22:36;;;;;;;4.10;1.55;;;;;;;;;;5071612;28;20036;-70
2023/05/03 08:25:03;;;;;;;8.00;1.52;;;;;;;;;;5052631;28;20390;-70
2023/05/03 08:27:29;;;;;;;4.80;1.52;;;;;;;;;;5051840;28;20033;-71
2023/05/03 08:29:55;;;;;;;9.38;1.77;;;;;;;;;;5054037;28;20028;-71
2023/05/03 08:32:22;;;;;;;9.98;1.52;;;;;;;;;;5052842;28;20379;-71
2023/05/03 08:34:49;;;;;;;10.05;1.85;;;;;;;;;;5051694;28;20040;-71
2023/05/03 08:37:15;;;;;;;6.78;1.65;;;;;;;;;;5051312;28;20506;-70
2023/05/03 08:39:41;;;;;;;7.15;1.27;;;;;;;;;;5053299;28;20037;-69
2023/05/03 08:42:08;;;;;;;5.50;1.70;;;;;;;;;;5054846;28;20605;-72
2023/05/03 08:44:36;;;;;;;8.65;2.33;;;;;;;;;;5054971;28;20029;-70
2023/05/03 08:47:04;;;;;;;8.07;1.52;;;;;;;;;;5055089;28;20047;-69
2023/05/03 08:49:33;;;;;;;9.55;1.88;;;;;;;;;;5055277;28;20029;-69
2023/05/03 08:52:00;;;;;;;6.05;1.40;;;;;;;;;;5054974;28;20051;-70
2023/05/03 08:54:26;;;;;;;7.13;1.40;;;;;;;;;;5055126;28;20075;-71
2023/05/03 08:56:52;;;;;;;3.30;1.20;;;;;;;;;;5055138;28;20033;-71
2023/05/03 08:59:18;;;;;;;8.68;1.40;;;;;;;;;;5055443;28;20108;-71
2023/05/03 09:01:44;;;;;;;10.90;1.92;;;;;;;;;;5054915;28;20433;-69
2023/05/03 09:04:11;;;;;;;7.78;2.05;;;;;;;;;;5055401;28;20037;-70
2023/05/03 09:06:37;;;;;;;8.45;1.70;;;;;;;;;;5055502;28;20410;-71
2023/05/03 09:09:06;;;;;;;7.68;1.80;;;;;;;;;;5055278;28;20486;-70
2023/05/03 09:11:33;;;;;;;6.22;1.80;;;;;;;;;;5054991;28;20104;-70
2023/05/03 09:14:07;;;;;;;5.10;1.30;;;;;;;;;;5054522;28;20441;-70
2023/05/03 09:16:35;;;;;;;3.67;1.33;;;;;;;;;;5054689;28;20072;-69
2023/05/03 09:19:11;;;;;;;9.20;1.70;;;;;;;;;;5054782;28;20083;-70
2023/05/03 09:21:37;;;;;;;5.07;1.38;;;;;;;;;;5054663;28;20056;-70
2023/05/03 09:24:14;;;;;;;7.28;1.45;;;;;;;;;;5054359;28;20025;-71
2023/05/03 09:26:41;;;;;;;4.95;1.63;;;;;;;;;;5054639;28;20017;-70
2023/05/03 09:29:07;;;;;;;8.07;1.58;;;;;;;;;;5054596;28;20493;-70
2023/05/03 09:31:34;;;;;;;6.88;2.53;;;;;;;;;;5053694;28;20032;-72
2023/05/03 09:34:00;;;;;;;10.57;1.80;;;;;;;;;;5052968;28;20151;-70
2023/05/03 09:36:27;;;;;;;6.15;1.40;;;;;;;;;;5054489;28;20398;-69
2023/05/03 09:38:54;;;;;;;5.88;1.90;;;;;;;;;;5054123;28;20108;-69
2023/05/03 09:41:27;;;;;;;7.60;1.83;;;;;;;;;;5054060;28;20028;-70
2023/05/03 09:43:54;;;;;;;5.82;1.50;;;;;;;;;;5054036;28;20025;-69
2023/05/03 09:46:21;;;;;;;8.60;1.40;;;;;;;;;;5053832;28;20545;-69
2023/05/03 09:48:48;;;;;;;9.02;1.70;;;;;;;;;;5054221;28;20047;-70
2023/05/03 09:51:14;;;;;;;5.90;1.55;;;;;;;;;;5053210;28;20056;-71
2023/05/03 09:53:40;;;;;;;4.57;1.85;;;;;;;;;;5053493;28;20036;-70
2023/05/03 09:56:11;;;;;;;8.90;3.38;;;;;;;;;;5053576;28;20037;-71
2023/05/03 09:58:37;;;;;;;8.48;1.80;;;;;;;;;;5053688;28;20055;-70
2023/05/03 10:01:03;;;;;;;5.15;3.03;;;;;;;;;;5054009;28;20029;-71
2023/05/03 10:03:36;;;;;;;10.13;3.28;;;;;;;;;;5053461;28;20029;-71
2023/05/03 10:06:04;;;;;;;7.32;2.25;;;;;;;;;;5054393;28;20029;-70
2023/05/03 10:08:36;;;;;;;8.82;3.55;;;;;;;;;;5056077;28;20033;-72
2023/05/03 10:11:07;;;;;;;13.10;5.47;;;;;;;;;;5054150;28;20110;-70
2023/05/03 10:13:34;;;;;;;8.13;2.60;;;;;;;;;;5053781;28;20087;-71
2023/05/03 10:16:03;;;;;;;5.25;1.85;;;;;;;;;;5055029;28;20033;-71
2023/05/03 10:18:30;;;;;;;4.70;1.40;;;;;;;;;;5054201;28;20029;-73
2023/05/03 10:20:59;;;;;;;7.30;1.58;;;;;;;;;;5053465;28;20031;-68
2023/05/03 10:23:25;;;;;;;8.18;1.63;;;;;;;;;;5053214;28;20029;-69
2023/05/03 10:26:08;;;;;;;7.10;1.67;;;;;;;;;;5053578;28;20021;-70
2023/05/03 10:28:34;;;;;;;5.22;1.50;;;;;;;;;;5053042;28;20510;-70
2023/05/03 10:31:00;;;;;;;9.38;2.17;;;;;;;;;;5053153;28;20039;-71
2023/05/03 10:33:31;;;;;;;7.88;2.20;;;;;;;;;;5052675;28;20025;-70
2023/05/03 10:36:00;;;;;;;6.72;1.80;;;;;;;;;;5053546;28;20056;-70
2023/05/03 10:38:27;;;;;;;8.55;1.95;;;;;;;;;;5053611;28;20033;-71
2023/05/03 10:40:54;;;;;;;12.57;3.83;;;;;;;;;;5053505;28;20025;-71
2023/05/03 10:43:29;;;;;;;6.70;2.75;;;;;;;;;;5053262;28;20430;-71
2023/05/03 10:45:58;;;;;;;9.18;1.60;;;;;;;;;;5053211;28;20052;-70
2023/05/03 10:48:24;;;;;;;6.03;1.30;;;;;;;;;;5053509;28;20079;-71
2023/05/03 10:50:51;;;;;;;4.57;1.38;;;;;;;;;;5053273;28;20100;-71
2023/05/03 10:53:36;;;;;;;4.53;1.40;;;;;;;;;;5052782;28;20522;-70
2023/05/03 10:56:04;;;;;;;7.63;1.88;;;;;;;;;;5052795;28;20025;-71
2023/05/03 10:58:34;;;;;;;5.55;1.55;;;;;;;;;;5052893;28;20021;-71
2023/05/03 11:01:00;;;;;;;6.28;1.70;;;;;;;;;;5053319;28;20360;-71
2023/05/03 11:03:28;;;;;;;5.45;1.50;;;;;;;;;;5052010;28;20139;-70
2023/05/03 11:05:56;;;;;;;7.68;1.75;;;;;;;;;;5053840;28;20493;-71
2023/05/03 11:08:24;;;;;;;3.17;1.30;;;;;;;;;;5052317;28;20047;-72
2023/05/03 11:10:56;;;;;;;6.60;1.55;;;;;;;;;;5052639;28;20051;-71
2023/05/03 11:13:22;;;;;;;6.45;1.58;;;;;;;;;;5052218;28;20024;-70
2023/05/03 11:15:48;;;;;;;11.75;1.83;;;;;;;;;;5052331;28;20021;-70
2023/05/03 11:18:14;;;;;;;4.90;1.70;;;;;;;;;;5052268;28;20029;-71
2023/05/03 11:20:40;;;;;;;9.40;1.63;;;;;;;;;;5052274;28;20024;-70
2023/05/03 11:23:06;;;;;;;5.97;1.70;;;;;;;;;;5051909;28;20548;-70
2023/05/03 11:25:33;;;;;;;8.18;1.75;;;;;;;;;;5052175;28;20025;-72
2023/05/03 11:28:02;;;;;;;7.38;1.40;;;;;;;;;;5052252;28;20027;-69
2023/05/03 11:30:29;;;;;;;11.25;1.70;;;;;;;;;;5051802;28;20339;-70
2023/05/03 11:32:55;;;;;;;4.72;1.45;;;;;;;;;;5051915;28;20509;-71
2023/05/03 11:35:25;;;;;;;4.55;1.60;;;;;;;;;;5052276;28;20032;-70
2023/05/03 11:37:52;;;;;;;3.05;1.38;;;;;;;;;;5052213;28;20533;-70
2023/05/03 11:40:18;;;;;;;7.63;1.75;;;;;;;;;;5051987;28;20028;-70
2023/05/03 11:42:51;;;;;;;5.25;1.48;;;;;;;;;;5051830;28;20040;-70
2023/05/03 11:45:18;;;;;;;7.20;1.70;;;;;;;;;;5052621;28;20100;-70
2023/05/03 11:47:44;;;;;;;6.47;1.73;;;;;;;;;;5053471;28;20021;-71
2023/05/03 11:50:10;;;;;;;37.53;20.33;;;;;;;;;;5051776;28;20047;-71
2023/05/03 11:52:36;;;;;;;4.82;1.88;;;;;;;;;;5051223;28;20061;-70
2023/05/03 11:55:03;;;;;;;18.00;2.42;;;;;;;;;;5051651;28;20031;-70
2023/05/03 11:57:31;;;;;;;6.80;2.10;;;;;;;;;;5051711;28;20486;-70
2023/05/03 12:00:09;;;;;;;10.35;1.95;;;;;;;;;;5051503;28;20131;-71
2023/05/03 12:02:35;;;;;;;4.20;1.67;;;;;;;;;;5051357;28;20040;-73
2023/05/03 12:05:01;;;;;;;7.65;2.28;;;;;;;;;;5051754;28;20467;-70
2023/05/03 12:07:27;;;;;;;4.53;1.58;;;;;;;;;;5051530;28;20108;-70
2023/05/03 12:09:53;;;;;;;7.82;2.00;;;;;;;;;;5051749;28;20028;-73
2023/05/03 12:12:19;;;;;;;5.85;1.70;;;;;;;;;;5051850;28;20025;-70
2023/05/03 12:14:56;;;;;;;5.32;2.20;;;;;;;;;;5052326;28;20029;-73
2023/05/03 12:17:38;;;;;;;3.72;1.35;;;;;;;;;;5052034;28;20103;-70
2023/05/03 12:20:15;;;;;;;6.45;1.80;;;;;;;;;;5051709;28;20067;-72
2023/05/03 12:22:41;;;;;;;6.40;2.38;;;;;;;;;;5051616;28;20029;-70
2023/05/03 12:25:07;;;;;;;8.43;2.80;;;;;;;;;;5051719;28;20520;-71
2023/05/03 12:27:33;;;;;;;8.45;2.13;;;;;;;;;;5051967;28;20378;-71
2023/05/03 12:29:59;;;;;;;9.82;2.65;;;;;;;;;;5051423;28;20026;-73
2023/05/03 12:32:25;;;;;;;5.13;1.92;;;;;;;;;;5051199;28;20021;-71
2023/05/03 12:34:55;;;;;;;6.75;2.08;;;;;;;;;;5051386;28;20036;-70
2023/05/03 12:37:21;;;;;;;6.90;1.63;;;;;;;;;;5051548;28;20028;-70
2023/05/03 12:39:47;;;;;;;10.68;1.77;;;;;;;;;;5051392;28;20033;-71
2023/05/03 12:42:13;;;;;;;6.75;2.05;;;;;;;;;;5051384;28;20665;-71
2023/05/03 12:44:39;;;;;;;5.35;1.67;;;;;;;;;;5051257;28;20095;-71
2023/05/03 12:47:05;;;;;;;6.72;1.80;;;;;;;;;;5051685;28;20021;-73
2023/05/03 12:49:31;;;;;;;6.47;2.13;;;;;;;;;;5051580;28;20027;-74
2023/05/03 12:51:59;;;;;;;11.93;2.55;;;;;;;;;;5051373;28;20096;-74
2023/05/03 12:54:25;;;;;;;7.55;2.30;;;;;;;;;;5052443;28;20021;-73
2023/05/03 12:56:51;;;;;;;6.60;1.80;;;;;;;;;;5051400;28;20025;-73
2023/05/03 12:59:17;;;;;;;6.00;1.90;;;;;;;;;;5048599;28;20039;-72
2023/05/03 13:01:43;;;;;;;9.40;3.45;;;;;;;;;;5050663;28;20515;-74
2023/05/03 13:04:10;;;;;;;6.03;1.70;;;;;;;;;;5052780;28;20064;-71
2023/05/03 13:06:37;;;;;;;10.48;2.50;;;;;;;;;;5050879;28;20032;-72
2023/05/03 13:09:04;;;;;;;6.43;2.15;;;;;;;;;;5049954;28;20483;-73
2023/05/03 13:11:31;;;;;;;7.40;1.98;;;;;;;;;;5051115;28;20070;-72
2023/05/03 13:13:57;;;;;;;7.85;2.00;;;;;;;;;;5045364;28;20040;-72
2023/05/03 13:16:24;;;;;;;9.27;1.80;;;;;;;;;;5054040;28;20029;-73
2023/05/03 13:18:54;;;;;;;6.88;1.75;;;;;;;;;;5049624;28;20025;-74
2023/05/03 13:21:20;;;;;;;10.27;2.05;;;;;;;;;;5055719;28;20029;-72
2023/05/03 13:23:46;;;;;;;9.38;2.40;;;;;;;;;;5050683;28;20817;-71
2023/05/03 13:26:12;;;;;;;6.00;1.88;;;;;;;;;;5051438;28;20072;-71
2023/05/03 13:28:40;;;;;;;8.60;4.95;;;;;;;;;;5054093;28;20029;-73
2023/05/03 13:31:06;;;;;;;7.80;2.70;;;;;;;;;;5054202;28;20039;-73
2023/05/03 13:33:36;;;;;;;7.80;2.28;;;;;;;;;;5053684;28;20036;-74
2023/05/03 13:36:02;;;;;;;8.80;2.53;;;;;;;;;;5057967;28;20029;-72
2023/05/03 13:38:28;;;;;;;14.13;2.60;;;;;;;;;;5054212;28;20025;-72
2023/05/03 13:40:54;;;;;;;8.90;2.15;;;;;;;;;;5053900;28;20112;-72
2023/05/03 13:43:20;;;;;;;5.80;2.13;;;;;;;;;;5053685;28;20099;-72
2023/05/03 13:45:46;;;;;;;8.73;2.85;;;;;;;;;;5053797;28;20029;-71
2023/05/03 13:48:12;;;;;;;10.05;2.30;;;;;;;;;;5053771;28;20025;-73
2023/05/03 13:50:38;;;;;;;6.20;2.70;;;;;;;;;;5054659;28;20086;-72
2023/05/03 13:53:05;;;;;;;6.15;1.83;;;;;;;;;;5051964;28;20459;-72
2023/05/03 13:55:31;;;;;;;8.57;1.92;;;;;;;;;;5057608;28;20033;-71
2023/05/03 13:57:57;;;;;;;8.07;1.98;;;;;;;;;;5059661;28;20112;-71
2023/05/03 14:00:23;;;;;;;5.20;2.30;;;;;;;;;;5052394;28;20041;-72
2023/05/03 14:02:50;;;;;;;5.43;2.00;;;;;;;;;;5054280;28;20025;-73
2023/05/03 14:05:18;;;;;;;7.18;2.00;;;;;;;;;;5052163;28;20032;-70
2023/05/03 14:07:44;;;;;;;6.57;2.38;;;;;;;;;;5051844;28;20120;-74
2023/05/03 14:10:10;;;;;;;5.95;2.35;;;;;;;;;;5061644;28;20028;-71
2023/05/03 14:12:37;;;;;;;8.10;2.42;;;;;;;;;;5073158;28;20137;-70
2023/05/03 14:15:03;;;;;;;7.55;2.75;;;;;;;;;;5073834;28;20044;-73
2023/05/03 14:17:30;;;;;;;8.40;3.30;;;;;;;;;;5073289;28;20058;-71
2023/05/03 14:19:57;;;;;;;5.70;2.08;;;;;;;;;;5073239;28;20497;-71
2023/05/03 14:22:23;;;;;;;6.28;2.25;;;;;;;;;;5073568;28;20033;-71
2023/05/03 14:24:50;;;;;;;6.03;2.05;;;;;;;;;;5073714;28;20025;-72
2023/05/03 14:27:20;;;;;;;7.50;2.08;;;;;;;;;;5073505;28;20099;-72
2023/05/03 14:29:46;;;;;;;5.90;2.45;;;;;;;;;;5073739;28;20202;-76
2023/05/03 14:32:12;;;;;;;9.68;2.50;;;;;;;;;;5072288;28;20730;-71
2023/05/03 14:34:38;;;;;;;7.22;2.00;;;;;;;;;;5073263;28;20020;-71